sensor_id;sensor_type;location;lat;lon;timestamp;temperature;humidity
17845;DHT22;9047;53.486;10.218;2023-07-02T00:01:58;14.80;99.90
17845;DHT22;9047;53.486;10.218;2023-07-02T00:04:26;14.80;99.90
17845;DHT22;9047;53.486;10.218;2023-07-02T00:06:53;14.70;99.90
17845;DHT22;9047;53.486;10.218;2023-07-02T00:09:20;14.80;99.90
17845;DHT22;9047;53.486;10.218;2023-07-02T00:11:47;14.60;99.90
17845;DHT22;9047;53.486;10.218;2023-07-02T00:14:14;14.60;99.90
17845;DHT22;9047;53.486;10.218;2023-07-02T00:16:43;14.60;99.90
17845;DHT22;9047;53.486;10.218;2023-07-02T00:19:11;14.50;99.90
17845;DHT22;9047;53.486;10.218;2023-07-02T00:21:40;14.60;99.90
17845;DHT22;9047;53.486;10.218;2023-07-02T00:24:08;14.50;99.90
17845;DHT22;9047;53.486;10.218;2023-07-02T00:26:37;14.40;99.90
17845;DHT22;9047;53.486;10.218;2023-07-02T00:29:05;14.40;99.90
17845;DHT22;9047;53.486;10.218;2023-07-02T00:31:33;14.40;99.90
17845;DHT22;9047;53.486;10.218;2023-07-02T00:34:02;14.30;99.90
17845;DHT22;9047;53.486;10.218;2023-07-02T00:36:29;14.30;99.90
17845;DHT22;9047;53.486;10.218;2023-07-02T00:38:58;14.20;99.90
17845;DHT22;9047;53.486;10.218;2023-07-02T00:41:27;14.30;99.90
17845;DHT22;9047;53.486;10.218;2023-07-02T00:43:54;14.40;99.90
17845;DHT22;9047;53.486;10.218;2023-07-02T00:46:23;14.40;99.90
17845;DHT22;9047;53.486;10.218;2023-07-02T00:48:52;14.40;99.90
17845;DHT22;9047;53.486;10.218;2023-07-02T00:51:20;14.40;99.90
17845;DHT22;9047;53.486;10.218;2023-07-02T00:53:48;14.50;99.90
17845;DHT22;9047;53.486;10.218;2023-07-02T00:56:18;14.50;99.90
17845;DHT22;9047;53.486;10.218;2023-07-02T00:58:46;14.60;99.90
17845;DHT22;9047;53.486;10.218;2023-07-02T01:01:15;14.50;99.90
17845;DHT22;9047;53.486;10.218;2023-07-02T01:03:53;14.60;99.90
17845;DHT22;9047;53.486;10.218;2023-07-02T01:06:25;14.70;99.90
17845;DHT22;9047;53.486;10.218;2023-07-02T01:08:55;14.70;99.90
17845;DHT22;9047;53.486;10.218;2023-07-02T01:11:27;14.70;99.90
17845;DHT22;9047;53.486;10.218;2023-07-02T01:13:59;14.80;99.90
17845;DHT22;9047;53.486;10.218;2023-07-02T01:16:28;14.90;99.90
17845;DHT22;9047;53.486;10.218;2023-07-02T01:18:56;14.90;99.90
17845;DHT22;9047;53.486;10.218;2023-07-02T01:21:25;14.90;99.90
17845;DHT22;9047;53.486;10.218;2023-07-02T01:23:53;14.90;99.90
17845;DHT22;9047;53.486;10.218;2023-07-02T01:26:20;14.90;99.90
17845;DHT22;9047;53.486;10.218;2023-07-02T01:28:47;14.90;99.90
17845;DHT22;9047;53.486;10.218;2023-07-02T01:31:14;14.90;99.90
17845;DHT22;9047;53.486;10.218;2023-07-02T01:33:41;14.90;99.90
17845;DHT22;9047;53.486;10.218;2023-07-02T01:36:08;14.90;99.90
17845;DHT22;9047;53.486;10.218;2023-07-02T01:38:37;14.90;99.90
17845;DHT22;9047;53.486;10.218;2023-07-02T01:41:04;14.90;99.90
17845;DHT22;9047;53.486;10.218;2023-07-02T01:43:33;14.90;99.90
17845;DHT22;9047;53.486;10.218;2023-07-02T01:46:00;14.90;99.90
17845;DHT22;9047;53.486;10.218;2023-07-02T01:48:27;14.90;99.90
17845;DHT22;9047;53.486;10.218;2023-07-02T01:50:55;14.90;99.90
17845;DHT22;9047;53.486;10.218;2023-07-02T01:53:24;14.90;99.90
17845;DHT22;9047;53.486;10.218;2023-07-02T01:55:52;14.90;99.90
17845;DHT22;9047;53.486;10.218;2023-07-02T01:58:19;14.90;99.90
17845;DHT22;9047;53.486;10.218;2023-07-02T02:00:46;15.00;99.90
17845;DHT22;9047;53.486;10.218;2023-07-02T02:03:16;14.90;99.90
17845;DHT22;9047;53.486;10.218;2023-07-02T02:05:43;14.90;99.90
17845;DHT22;9047;53.486;10.218;2023-07-02T02:08:10;14.90;99.90
17845;DHT22;9047;53.486;10.218;2023-07-02T02:10:37;14.90;99.90
17845;DHT22;9047;53.486;10.218;2023-07-02T02:13:05;14.90;99.90
17845;DHT22;9047;53.486;10.218;2023-07-02T02:15:32;14.90;99.90
17845;DHT22;9047;53.486;10.218;2023-07-02T02:18:01;14.80;99.90
17845;DHT22;9047;53.486;10.218;2023-07-02T02:20:28;14.80;99.90
17845;DHT22;9047;53.486;10.218;2023-07-02T02:22:57;14.80;99.90
17845;DHT22;9047;53.486;10.218;2023-07-02T02:25:25;14.70;99.90
17845;DHT22;9047;53.486;10.218;2023-07-02T02:27:52;14.80;99.90
17845;DHT22;9047;53.486;10.218;2023-07-02T02:30:21;14.80;99.90
17845;DHT22;9047;53.486;10.218;2023-07-02T02:32:47;14.90;99.90
17845;DHT22;9047;53.486;10.218;2023-07-02T02:35:16;14.80;99.90
17845;DHT22;9047;53.486;10.218;2023-07-02T02:37:48;14.80;99.90
17845;DHT22;9047;53.486;10.218;2023-07-02T02:40:15;14.90;99.90
17845;DHT22;9047;53.486;10.218;2023-07-02T02:42:42;14.90;99.90
17845;DHT22;9047;53.486;10.218;2023-07-02T02:45:09;14.90;99.90
17845;DHT22;9047;53.486;10.218;2023-07-02T02:47:38;15.00;99.90
17845;DHT22;9047;53.486;10.218;2023-07-02T02:50:06;15.00;99.90
17845;DHT22;9047;53.486;10.218;2023-07-02T02:52:35;15.10;99.90
17845;DHT22;9047;53.486;10.218;2023-07-02T02:55:02;15.10;99.90
17845;DHT22;9047;53.486;10.218;2023-07-02T02:57:28;15.10;99.90
17845;DHT22;9047;53.486;10.218;2023-07-02T02:59:55;15.00;99.90
17845;DHT22;9047;53.486;10.218;2023-07-02T03:02:22;15.00;99.90
17845;DHT22;9047;53.486;10.218;2023-07-02T03:04:50;15.00;99.90
17845;DHT22;9047;53.486;10.218;2023-07-02T03:07:17;14.90;99.90
17845;DHT22;9047;53.486;10.218;2023-07-02T03:09:45;15.00;99.90
17845;DHT22;9047;53.486;10.218;2023-07-02T03:12:12;15.00;99.90
17845;DHT22;9047;53.486;10.218;2023-07-02T03:14:39;14.90;99.90
17845;DHT22;9047;53.486;10.218;2023-07-02T03:17:06;14.90;99.90
17845;DHT22;9047;53.486;10.218;2023-07-02T03:19:33;14.90;99.90
17845;DHT22;9047;53.486;10.218;2023-07-02T03:22:01;14.90;99.90
17845;DHT22;9047;53.486;10.218;2023-07-02T03:24:31;14.80;99.90
17845;DHT22;9047;53.486;10.218;2023-07-02T03:26:57;14.90;99.90
17845;DHT22;9047;53.486;10.218;2023-07-02T03:29:24;14.80;99.90
17845;DHT22;9047;53.486;10.218;2023-07-02T03:31:53;14.80;99.90
17845;DHT22;9047;53.486;10.218;2023-07-02T03:34:20;14.80;99.90
17845;DHT22;9047;53.486;10.218;2023-07-02T03:36:47;14.80;99.90
17845;DHT22;9047;53.486;10.218;2023-07-02T03:39:18;14.80;99.90
17845;DHT22;9047;53.486;10.218;2023-07-02T03:41:45;14.80;99.90
17845;DHT22;9047;53.486;10.218;2023-07-02T03:44:12;14.80;99.90
17845;DHT22;9047;53.486;10.218;2023-07-02T03:46:39;14.80;99.90
17845;DHT22;9047;53.486;10.218;2023-07-02T03:49:06;14.80;99.90
17845;DHT22;9047;53.486;10.218;2023-07-02T03:51:35;14.80;99.90
17845;DHT22;9047;53.486;10.218;2023-07-02T03:54:02;14.80;99.90
17845;DHT22;9047;53.486;10.218;2023-07-02T03:56:31;14.80;99.90
17845;DHT22;9047;53.486;10.218;2023-07-02T03:58:58;14.80;99.90
17845;DHT22;9047;53.486;10.218;2023-07-02T04:01:25;14.80;99.90
17845;DHT22;9047;53.486;10.218;2023-07-02T04:03:53;14.80;99.90
17845;DHT22;9047;53.486;10.218;2023-07-02T04:06:20;14.80;99.90
17845;DHT22;9047;53.486;10.218;2023-07-02T04:08:47;14.80;99.90
17845;DHT22;9047;53.486;10.218;2023-07-02T04:11:14;14.80;99.90
17845;DHT22;9047;53.486;10.218;2023-07-02T04:13:44;14.80;99.90
17845;DHT22;9047;53.486;10.218;2023-07-02T04:16:11;14.80;99.90
17845;DHT22;9047;53.486;10.218;2023-07-02T04:18:40;14.90;99.90
17845;DHT22;9047;53.486;10.218;2023-07-02T04:21:07;14.90;99.90
17845;DHT22;9047;53.486;10.218;2023-07-02T04:23:34;14.90;99.90
17845;DHT22;9047;53.486;10.218;2023-07-02T04:26:02;15.00;99.90
17845;DHT22;9047;53.486;10.218;2023-07-02T04:28:29;15.10;99.90
17845;DHT22;9047;53.486;10.218;2023-07-02T04:30:58;15.30;99.90
17845;DHT22;9047;53.486;10.218;2023-07-02T04:33:25;15.40;99.90
17845;DHT22;9047;53.486;10.218;2023-07-02T04:36:01;15.50;99.90
17845;DHT22;9047;53.486;10.218;2023-07-02T04:38:27;15.60;99.90
17845;DHT22;9047;53.486;10.218;2023-07-02T04:40:55;15.60;99.90
17845;DHT22;9047;53.486;10.218;2023-07-02T04:43:30;15.60;99.90
17845;DHT22;9047;53.486;10.218;2023-07-02T04:46:00;15.60;99.90
17845;DHT22;9047;53.486;10.218;2023-07-02T04:48:27;15.60;99.90
17845;DHT22;9047;53.486;10.218;2023-07-02T04:50:54;15.60;99.90
17845;DHT22;9047;53.486;10.218;2023-07-02T04:53:21;15.50;99.90
17845;DHT22;9047;53.486;10.218;2023-07-02T04:55:51;15.60;99.90
17845;DHT22;9047;53.486;10.218;2023-07-02T04:58:20;15.60;99.90
17845;DHT22;9047;53.486;10.218;2023-07-02T05:00:47;15.60;99.90
17845;DHT22;9047;53.486;10.218;2023-07-02T05:03:15;15.60;99.90
17845;DHT22;9047;53.486;10.218;2023-07-02T05:05:42;15.60;99.90
17845;DHT22;9047;53.486;10.218;2023-07-02T05:08:11;15.70;99.90
17845;DHT22;9047;53.486;10.218;2023-07-02T05:10:38;15.70;99.90
17845;DHT22;9047;53.486;10.218;2023-07-02T05:13:05;15.70;99.90
17845;DHT22;9047;53.486;10.218;2023-07-02T05:15:33;15.70;99.90
17845;DHT22;9047;53.486;10.218;2023-07-02T05:18:00;15.80;99.90
17845;DHT22;9047;53.486;10.218;2023-07-02T05:20:29;15.80;99.90
17845;DHT22;9047;53.486;10.218;2023-07-02T05:22:58;16.00;99.90
17845;DHT22;9047;53.486;10.218;2023-07-02T05:25:25;15.90;99.90
17845;DHT22;9047;53.486;10.218;2023-07-02T05:27:52;15.90;99.90
17845;DHT22;9047;53.486;10.218;2023-07-02T05:30:19;16.00;99.90
17845;DHT22;9047;53.486;10.218;2023-07-02T05:32:46;16.00;99.90
17845;DHT22;9047;53.486;10.218;2023-07-02T05:35:14;16.00;99.90
17845;DHT22;9047;53.486;10.218;2023-07-02T05:37:42;16.10;99.90
17845;DHT22;9047;53.486;10.218;2023-07-02T05:40:11;16.10;99.90
17845;DHT22;9047;53.486;10.218;2023-07-02T05:42:38;16.10;99.90
17845;DHT22;9047;53.486;10.218;2023-07-02T05:45:06;16.10;99.90
17845;DHT22;9047;53.486;10.218;2023-07-02T05:47:34;16.30;99.90
17845;DHT22;9047;53.486;10.218;2023-07-02T05:50:02;16.40;99.90
17845;DHT22;9047;53.486;10.218;2023-07-02T05:52:29;16.40;99.90
17845;DHT22;9047;53.486;10.218;2023-07-02T05:54:58;16.50;99.90
17845;DHT22;9047;53.486;10.218;2023-07-02T05:57:25;16.50;99.90
17845;DHT22;9047;53.486;10.218;2023-07-02T05:59:52;16.60;99.90
17845;DHT22;9047;53.486;10.218;2023-07-02T06:02:19;16.80;99.90
17845;DHT22;9047;53.486;10.218;2023-07-02T06:04:46;16.80;99.90
17845;DHT22;9047;53.486;10.218;2023-07-02T06:07:13;16.80;99.90
17845;DHT22;9047;53.486;10.218;2023-07-02T06:09:40;16.90;99.90
17845;DHT22;9047;53.486;10.218;2023-07-02T06:12:09;16.90;99.90
17845;DHT22;9047;53.486;10.218;2023-07-02T06:14:36;17.00;99.90
17845;DHT22;9047;53.486;10.218;2023-07-02T06:17:03;17.10;99.90
17845;DHT22;9047;53.486;10.218;2023-07-02T06:19:32;17.20;99.90
17845;DHT22;9047;53.486;10.218;2023-07-02T06:21:58;17.40;99.90
17845;DHT22;9047;53.486;10.218;2023-07-02T06:24:27;17.50;99.90
17845;DHT22;9047;53.486;10.218;2023-07-02T06:26:56;17.60;99.90
17845;DHT22;9047;53.486;10.218;2023-07-02T06:29:25;18.00;99.90
17845;DHT22;9047;53.486;10.218;2023-07-02T06:31:54;18.80;99.90
17845;DHT22;9047;53.486;10.218;2023-07-02T06:34:22;19.50;99.90
17845;DHT22;9047;53.486;10.218;2023-07-02T06:36:49;20.30;99.90
17845;DHT22;9047;53.486;10.218;2023-07-02T06:39:17;20.90;99.90
17845;DHT22;9047;53.486;10.218;2023-07-02T06:41:43;21.40;99.90
17845;DHT22;9047;53.486;10.218;2023-07-02T06:44:11;21.90;99.90
17845;DHT22;9047;53.486;10.218;2023-07-02T06:46:48;22.30;99.90
17845;DHT22;9047;53.486;10.218;2023-07-02T06:49:15;22.60;99.90
17845;DHT22;9047;53.486;10.218;2023-07-02T06:51:42;22.90;99.90
17845;DHT22;9047;53.486;10.218;2023-07-02T06:54:10;23.30;99.90
17845;DHT22;9047;53.486;10.218;2023-07-02T06:56:39;23.80;99.90
17845;DHT22;9047;53.486;10.218;2023-07-02T06:59:08;24.20;99.70
17845;DHT22;9047;53.486;10.218;2023-07-02T07:01:35;24.40;98.50
17845;DHT22;9047;53.486;10.218;2023-07-02T07:04:06;24.30;98.30
17845;DHT22;9047;53.486;10.218;2023-07-02T07:06:33;24.40;97.60
17845;DHT22;9047;53.486;10.218;2023-07-02T07:09:01;24.30;97.40
17845;DHT22;9047;53.486;10.218;2023-07-02T07:11:28;24.30;97.20
17845;DHT22;9047;53.486;10.218;2023-07-02T07:13:55;24.40;97.20
17845;DHT22;9047;53.486;10.218;2023-07-02T07:16:22;24.70;97.10
17845;DHT22;9047;53.486;10.218;2023-07-02T07:18:49;24.90;96.50
17845;DHT22;9047;53.486;10.218;2023-07-02T07:21:20;25.10;95.40
17845;DHT22;9047;53.486;10.218;2023-07-02T07:23:48;25.00;94.60
17845;DHT22;9047;53.486;10.218;2023-07-02T07:26:16;24.70;94.90
17845;DHT22;9047;53.486;10.218;2023-07-02T07:28:43;24.30;95.10
17845;DHT22;9047;53.486;10.218;2023-07-02T07:31:10;23.90;95.20
17845;DHT22;9047;53.486;10.218;2023-07-02T07:33:37;23.30;95.90
17845;DHT22;9047;53.486;10.218;2023-07-02T07:36:04;22.80;97.20
17845;DHT22;9047;53.486;10.218;2023-07-02T07:38:32;22.50;97.90
17845;DHT22;9047;53.486;10.218;2023-07-02T07:40:59;22.50;97.60
17845;DHT22;9047;53.486;10.218;2023-07-02T07:43:26;22.10;98.00
17845;DHT22;9047;53.486;10.218;2023-07-02T07:45:56;21.60;98.90
17845;DHT22;9047;53.486;10.218;2023-07-02T07:48:24;21.10;99.60
17845;DHT22;9047;53.486;10.218;2023-07-02T07:50:52;20.60;99.90
17845;DHT22;9047;53.486;10.218;2023-07-02T07:53:19;20.30;99.90
17845;DHT22;9047;53.486;10.218;2023-07-02T07:55:48;20.10;99.90
17845;DHT22;9047;53.486;10.218;2023-07-02T07:58:15;20.00;99.90
17845;DHT22;9047;53.486;10.218;2023-07-02T08:00:42;19.70;99.90
17845;DHT22;9047;53.486;10.218;2023-07-02T08:03:10;20.00;99.90
17845;DHT22;9047;53.486;10.218;2023-07-02T08:05:37;20.30;99.90
17845;DHT22;9047;53.486;10.218;2023-07-02T08:08:04;20.70;99.90
17845;DHT22;9047;53.486;10.218;2023-07-02T08:10:31;20.80;99.10
17845;DHT22;9047;53.486;10.218;2023-07-02T08:12:59;20.80;98.80
17845;DHT22;9047;53.486;10.218;2023-07-02T08:15:26;20.80;98.70
17845;DHT22;9047;53.486;10.218;2023-07-02T08:17:53;20.80;98.70
17845;DHT22;9047;53.486;10.218;2023-07-02T08:20:22;20.80;99.80
17845;DHT22;9047;53.486;10.218;2023-07-02T08:22:49;20.90;99.00
17845;DHT22;9047;53.486;10.218;2023-07-02T08:25:17;21.30;98.30
17845;DHT22;9047;53.486;10.218;2023-07-02T08:27:47;21.80;97.50
17845;DHT22;9047;53.486;10.218;2023-07-02T08:30:15;21.90;96.30
17845;DHT22;9047;53.486;10.218;2023-07-02T08:32:43;22.10;96.00
17845;DHT22;9047;53.486;10.218;2023-07-02T08:35:10;22.10;95.40
17845;DHT22;9047;53.486;10.218;2023-07-02T08:37:38;22.00;95.80
17845;DHT22;9047;53.486;10.218;2023-07-02T08:40:06;21.90;95.40
17845;DHT22;9047;53.486;10.218;2023-07-02T08:42:33;21.70;95.00
17845;DHT22;9047;53.486;10.218;2023-07-02T08:45:01;21.70;95.60
17845;DHT22;9047;53.486;10.218;2023-07-02T08:47:30;21.70;95.10
17845;DHT22;9047;53.486;10.218;2023-07-02T08:49:56;21.60;94.80
17845;DHT22;9047;53.486;10.218;2023-07-02T08:52:23;21.60;94.60
17845;DHT22;9047;53.486;10.218;2023-07-02T08:54:51;21.50;94.10
17845;DHT22;9047;53.486;10.218;2023-07-02T08:57:17;21.20;94.00
17845;DHT22;9047;53.486;10.218;2023-07-02T08:59:47;20.90;94.20
17845;DHT22;9047;53.486;10.218;2023-07-02T09:02:17;20.60;94.60
17845;DHT22;9047;53.486;10.218;2023-07-02T09:04:45;20.70;94.80
17845;DHT22;9047;53.486;10.218;2023-07-02T09:07:11;20.80;95.20
17845;DHT22;9047;53.486;10.218;2023-07-02T09:09:45;21.00;95.10
17845;DHT22;9047;53.486;10.218;2023-07-02T09:12:22;21.10;93.80
17845;DHT22;9047;53.486;10.218;2023-07-02T09:14:54;21.10;93.90
17845;DHT22;9047;53.486;10.218;2023-07-02T09:17:27;21.00;93.30
17845;DHT22;9047;53.486;10.218;2023-07-02T09:19:56;21.00;93.40
17845;DHT22;9047;53.486;10.218;2023-07-02T09:22:24;21.10;93.80
17845;DHT22;9047;53.486;10.218;2023-07-02T09:24:52;21.20;93.70
17845;DHT22;9047;53.486;10.218;2023-07-02T09:27:34;21.50;93.10
17845;DHT22;9047;53.486;10.218;2023-07-02T09:30:09;21.60;93.00
17845;DHT22;9047;53.486;10.218;2023-07-02T09:32:36;21.40;93.10
17845;DHT22;9047;53.486;10.218;2023-07-02T09:35:07;21.10;93.50
17845;DHT22;9047;53.486;10.218;2023-07-02T09:37:34;20.80;94.10
17845;DHT22;9047;53.486;10.218;2023-07-02T09:40:01;20.50;94.20
17845;DHT22;9047;53.486;10.218;2023-07-02T09:42:31;20.20;94.60
17845;DHT22;9047;53.486;10.218;2023-07-02T09:44:59;20.00;94.80
17845;DHT22;9047;53.486;10.218;2023-07-02T09:47:27;19.90;95.40
17845;DHT22;9047;53.486;10.218;2023-07-02T09:49:59;19.60;96.00
17845;DHT22;9047;53.486;10.218;2023-07-02T09:52:30;19.40;96.80
17845;DHT22;9047;53.486;10.218;2023-07-02T09:54:57;19.30;97.10
17845;DHT22;9047;53.486;10.218;2023-07-02T09:57:24;19.40;97.30
17845;DHT22;9047;53.486;10.218;2023-07-02T09:59:52;19.50;96.90
17845;DHT22;9047;53.486;10.218;2023-07-02T10:02:19;19.60;96.70
17845;DHT22;9047;53.486;10.218;2023-07-02T10:04:47;19.90;96.60
17845;DHT22;9047;53.486;10.218;2023-07-02T10:07:26;20.20;96.30
17845;DHT22;9047;53.486;10.218;2023-07-02T10:09:55;20.70;95.50
17845;DHT22;9047;53.486;10.218;2023-07-02T10:12:23;20.90;94.50
17845;DHT22;9047;53.486;10.218;2023-07-02T10:14:51;21.10;93.80
17845;DHT22;9047;53.486;10.218;2023-07-02T10:17:26;21.10;94.10
17845;DHT22;9047;53.486;10.218;2023-07-02T10:19:54;21.20;94.40
17845;DHT22;9047;53.486;10.218;2023-07-02T10:22:22;21.30;93.80
17845;DHT22;9047;53.486;10.218;2023-07-02T10:24:55;21.40;94.10
17845;DHT22;9047;53.486;10.218;2023-07-02T10:27:36;21.70;94.30
17845;DHT22;9047;53.486;10.218;2023-07-02T10:30:06;22.00;93.50
17845;DHT22;9047;53.486;10.218;2023-07-02T10:32:34;22.20;93.70
17845;DHT22;9047;53.486;10.218;2023-07-02T10:35:01;22.20;93.10
17845;DHT22;9047;53.486;10.218;2023-07-02T10:37:35;22.20;93.00
17845;DHT22;9047;53.486;10.218;2023-07-02T10:40:07;22.20;93.50
17845;DHT22;9047;53.486;10.218;2023-07-02T10:42:44;22.20;93.40
17845;DHT22;9047;53.486;10.218;2023-07-02T10:45:11;22.10;93.60
17845;DHT22;9047;53.486;10.218;2023-07-02T10:47:39;22.00;92.90
17845;DHT22;9047;53.486;10.218;2023-07-02T10:50:14;21.90;91.30
17845;DHT22;9047;53.486;10.218;2023-07-02T10:52:41;21.80;91.30
17845;DHT22;9047;53.486;10.218;2023-07-02T10:55:10;21.70;92.00
17845;DHT22;9047;53.486;10.218;2023-07-02T10:57:38;21.50;92.60
17845;DHT22;9047;53.486;10.218;2023-07-02T11:00:07;21.40;93.00
17845;DHT22;9047;53.486;10.218;2023-07-02T11:02:36;21.00;92.00
17845;DHT22;9047;53.486;10.218;2023-07-02T11:05:06;20.70;92.60
17845;DHT22;9047;53.486;10.218;2023-07-02T11:07:37;20.30;92.50
17845;DHT22;9047;53.486;10.218;2023-07-02T11:10:05;20.00;93.20
17845;DHT22;9047;53.486;10.218;2023-07-02T11:12:34;19.90;93.80
17845;DHT22;9047;53.486;10.218;2023-07-02T11:15:09;19.90;94.40
17845;DHT22;9047;53.486;10.218;2023-07-02T11:17:36;20.00;94.70
17845;DHT22;9047;53.486;10.218;2023-07-02T11:20:06;20.20;94.60
17845;DHT22;9047;53.486;10.218;2023-07-02T11:22:39;20.60;93.70
17845;DHT22;9047;53.486;10.218;2023-07-02T11:25:13;21.00;93.80
17845;DHT22;9047;53.486;10.218;2023-07-02T11:27:42;21.30;92.50
17845;DHT22;9047;53.486;10.218;2023-07-02T11:30:10;21.50;92.60
17845;DHT22;9047;53.486;10.218;2023-07-02T11:32:48;21.60;92.20
17845;DHT22;9047;53.486;10.218;2023-07-02T11:35:15;21.60;92.40
17845;DHT22;9047;53.486;10.218;2023-07-02T11:37:43;21.70;92.50
17845;DHT22;9047;53.486;10.218;2023-07-02T11:40:11;21.80;92.70
17845;DHT22;9047;53.486;10.218;2023-07-02T11:42:38;21.80;92.30
17845;DHT22;9047;53.486;10.218;2023-07-02T11:45:10;21.60;92.70
17845;DHT22;9047;53.486;10.218;2023-07-02T11:47:38;21.50;93.20
17845;DHT22;9047;53.486;10.218;2023-07-02T11:50:05;21.60;92.90
17845;DHT22;9047;53.486;10.218;2023-07-02T11:52:33;21.50;91.20
17845;DHT22;9047;53.486;10.218;2023-07-02T11:55:00;21.50;90.70
17845;DHT22;9047;53.486;10.218;2023-07-02T11:57:27;21.40;90.50
17845;DHT22;9047;53.486;10.218;2023-07-02T11:59:54;21.50;90.60
17845;DHT22;9047;53.486;10.218;2023-07-02T12:02:23;21.70;90.20
17845;DHT22;9047;53.486;10.218;2023-07-02T12:04:50;21.80;90.30
17845;DHT22;9047;53.486;10.218;2023-07-02T12:07:16;22.10;90.40
17845;DHT22;9047;53.486;10.218;2023-07-02T12:09:44;22.30;90.20
17845;DHT22;9047;53.486;10.218;2023-07-02T12:12:10;22.40;89.20
17845;DHT22;9047;53.486;10.218;2023-07-02T12:14:37;22.40;87.80
17845;DHT22;9047;53.486;10.218;2023-07-02T12:17:08;22.20;87.30
17845;DHT22;9047;53.486;10.218;2023-07-02T12:19:39;22.00;88.00
17845;DHT22;9047;53.486;10.218;2023-07-02T12:22:09;21.70;89.30
17845;DHT22;9047;53.486;10.218;2023-07-02T12:24:40;21.70;89.90
17845;DHT22;9047;53.486;10.218;2023-07-02T12:27:07;22.00;90.30
17845;DHT22;9047;53.486;10.218;2023-07-02T12:29:35;22.40;88.20
17845;DHT22;9047;53.486;10.218;2023-07-02T12:32:02;22.60;88.60
17845;DHT22;9047;53.486;10.218;2023-07-02T12:34:31;22.60;88.00
17845;DHT22;9047;53.486;10.218;2023-07-02T12:36:59;22.50;88.60
17845;DHT22;9047;53.486;10.218;2023-07-02T12:39:26;22.30;89.00
17845;DHT22;9047;53.486;10.218;2023-07-02T12:41:53;22.30;89.70
17845;DHT22;9047;53.486;10.218;2023-07-02T12:44:20;22.30;89.10
17845;DHT22;9047;53.486;10.218;2023-07-02T12:46:47;22.40;89.30
17845;DHT22;9047;53.486;10.218;2023-07-02T12:49:14;22.10;89.20
17845;DHT22;9047;53.486;10.218;2023-07-02T12:51:41;21.90;90.20
17845;DHT22;9047;53.486;10.218;2023-07-02T12:54:09;21.70;90.70
17845;DHT22;9047;53.486;10.218;2023-07-02T12:56:36;21.80;90.40
17845;DHT22;9047;53.486;10.218;2023-07-02T12:59:02;22.10;89.50
17845;DHT22;9047;53.486;10.218;2023-07-02T13:01:30;22.30;87.50
17845;DHT22;9047;53.486;10.218;2023-07-02T13:03:57;22.30;87.50
17845;DHT22;9047;53.486;10.218;2023-07-02T13:06:24;22.20;88.90
17845;DHT22;9047;53.486;10.218;2023-07-02T13:08:51;22.20;89.60
17845;DHT22;9047;53.486;10.218;2023-07-02T13:11:22;22.30;88.40
17845;DHT22;9047;53.486;10.218;2023-07-02T13:13:49;22.40;87.70
17845;DHT22;9047;53.486;10.218;2023-07-02T13:16:15;22.50;88.00
17845;DHT22;9047;53.486;10.218;2023-07-02T13:18:43;22.70;90.00
17845;DHT22;9047;53.486;10.218;2023-07-02T13:21:09;23.00;89.60
17845;DHT22;9047;53.486;10.218;2023-07-02T13:23:36;23.10;89.40
17845;DHT22;9047;53.486;10.218;2023-07-02T13:26:03;23.10;88.60
17845;DHT22;9047;53.486;10.218;2023-07-02T13:28:31;22.90;89.60
17845;DHT22;9047;53.486;10.218;2023-07-02T13:30:58;22.50;88.40
17845;DHT22;9047;53.486;10.218;2023-07-02T13:33:24;22.30;89.30
17845;DHT22;9047;53.486;10.218;2023-07-02T13:35:51;22.10;90.00
17845;DHT22;9047;53.486;10.218;2023-07-02T13:38:19;22.00;90.30
17845;DHT22;9047;53.486;10.218;2023-07-02T13:40:45;22.00;90.70
17845;DHT22;9047;53.486;10.218;2023-07-02T13:43:12;22.10;90.60
17845;DHT22;9047;53.486;10.218;2023-07-02T13:45:40;22.30;90.80
17845;DHT22;9047;53.486;10.218;2023-07-02T13:48:07;22.30;90.00
17845;DHT22;9047;53.486;10.218;2023-07-02T13:50:34;22.40;90.10
17845;DHT22;9047;53.486;10.218;2023-07-02T13:53:25;22.50;90.20
17845;DHT22;9047;53.486;10.218;2023-07-02T13:55:52;22.60;88.50
17845;DHT22;9047;53.486;10.218;2023-07-02T13:58:19;22.60;86.00
17845;DHT22;9047;53.486;10.218;2023-07-02T14:00:47;22.60;86.70
17845;DHT22;9047;53.486;10.218;2023-07-02T14:03:14;22.50;86.80
17845;DHT22;9047;53.486;10.218;2023-07-02T14:05:41;22.40;87.80
17845;DHT22;9047;53.486;10.218;2023-07-02T14:08:12;22.30;89.40
17845;DHT22;9047;53.486;10.218;2023-07-02T14:10:39;22.10;90.10
17845;DHT22;9047;53.486;10.218;2023-07-02T14:13:06;22.00;90.60
17845;DHT22;9047;53.486;10.218;2023-07-02T14:15:37;22.00;90.10
17845;DHT22;9047;53.486;10.218;2023-07-02T14:18:05;21.90;90.10
17845;DHT22;9047;53.486;10.218;2023-07-02T14:20:32;21.90;90.00
17845;DHT22;9047;53.486;10.218;2023-07-02T14:22:59;22.00;89.90
17845;DHT22;9047;53.486;10.218;2023-07-02T14:25:26;22.20;90.00
17845;DHT22;9047;53.486;10.218;2023-07-02T14:27:53;22.30;89.80
17845;DHT22;9047;53.486;10.218;2023-07-02T14:30:19;22.40;90.00
17845;DHT22;9047;53.486;10.218;2023-07-02T14:32:46;22.50;88.80
17845;DHT22;9047;53.486;10.218;2023-07-02T14:35:14;22.30;87.90
17845;DHT22;9047;53.486;10.218;2023-07-02T14:37:41;22.30;87.50
17845;DHT22;9047;53.486;10.218;2023-07-02T14:40:09;22.20;89.00
17845;DHT22;9047;53.486;10.218;2023-07-02T14:42:36;22.20;89.20
17845;DHT22;9047;53.486;10.218;2023-07-02T14:45:04;22.20;90.10
17845;DHT22;9047;53.486;10.218;2023-07-02T14:47:31;22.20;90.00
17845;DHT22;9047;53.486;10.218;2023-07-02T14:49:58;22.10;90.00
17845;DHT22;9047;53.486;10.218;2023-07-02T14:52:26;21.90;89.00
17845;DHT22;9047;53.486;10.218;2023-07-02T14:54:53;21.80;90.10
17845;DHT22;9047;53.486;10.218;2023-07-02T14:57:20;21.70;89.70
17845;DHT22;9047;53.486;10.218;2023-07-02T14:59:47;21.80;89.80
17845;DHT22;9047;53.486;10.218;2023-07-02T15:02:15;22.00;90.20
17845;DHT22;9047;53.486;10.218;2023-07-02T15:04:42;22.10;90.20
17845;DHT22;9047;53.486;10.218;2023-07-02T15:07:09;22.00;89.20
17845;DHT22;9047;53.486;10.218;2023-07-02T15:09:37;21.90;88.20
17845;DHT22;9047;53.486;10.218;2023-07-02T15:12:04;21.80;88.90
17845;DHT22;9047;53.486;10.218;2023-07-02T15:14:31;21.70;88.60
17845;DHT22;9047;53.486;10.218;2023-07-02T15:16:59;21.60;89.20
17845;DHT22;9047;53.486;10.218;2023-07-02T15:19:25;21.60;89.50
17845;DHT22;9047;53.486;10.218;2023-07-02T15:21:52;21.60;89.50
17845;DHT22;9047;53.486;10.218;2023-07-02T15:24:19;21.60;89.40
17845;DHT22;9047;53.486;10.218;2023-07-02T15:26:47;21.50;89.70
17845;DHT22;9047;53.486;10.218;2023-07-02T15:29:14;21.50;89.40
17845;DHT22;9047;53.486;10.218;2023-07-02T15:31:41;21.50;89.90
17845;DHT22;9047;53.486;10.218;2023-07-02T15:34:11;21.50;90.00
17845;DHT22;9047;53.486;10.218;2023-07-02T15:36:40;21.50;90.30